Arbil, Iraq
Current Conditions -  °F | °C
As of 9:00 AM on Thursday 27 Nov 2014 (Local Time) from ORER Reporting Station
Broken Clouds Broken Clouds  
Wind Chill: 52°   Ceiling: 3500
Heat Index: 52°   Visibility: 4mi
Dew Point: 34°   Wind: 6mph
Humidity: 50%   Direction: 110°ESE
Pressure: 29.94"   Gusts: NA
Location:  36.19°N, 44.01°E
Report Text: ORER 270600Z 11005KT 7000 FEW025 BKN035 11/01 Q1014
Loading
Personal Weather Stations






























Interactive Weather Map New forecast layout! Learn more

10-Day Weather Forecast

Advertisements
Track Severe Weather on mobile